CYTZ/YTZ METAR and TAF weather

Enter ICAO airport designator
Station Type Date Time Source
CYTZ METAR 2018/01/17 06:00 UTC NOAA

CYTZ 170600Z AUTO 23011KT 9SM -SN SCT015 SCT034 OVC041 M09/M12 A3039 RMK SLP297


Station Type Date Time Source
CYTZ Decoded METAR 2018/01/17 06:00 UTC NOAA

Toronto Island Airport Automated Reporting Station, Canada (CYTZ) 43-38N 079-24W
Jan 17, 2018 - 01:00 AM EST / 2018.01.17 0600 UTC
Wind: from the SW (230 degrees) at 13 MPH (11 KT):0
Visibility: 9 mile(s):0
Sky conditions: overcast
Weather: light snow
Temperature: 15 F (-9 C)
Windchill: 1 F (-17 C):1
Dew Point: 10 F (-12 C)
Relative Humidity: 78%
Pressure (altimeter): 30.39 in. Hg (1029 hPa)
ob: CYTZ 170600Z AUTO 23011KT 9SM -SN SCT015 SCT034 OVC041 M09/M12 A3039 RMK SLP297
cycle: 6

Station Type Date Time Source
CYTZ TAF 2018/01/17 02:48 UTC NOAA

TAF CYTZ 170138Z 1702/1802 24010KT P6SM SCT015 OVC025
TEMPO 1702/1708 5SM -SHSN BKN015 OVC025
FM170800 24010KT P6SM FEW020 BKN040
FM171200 25012KT P6SM SCT040
FM171700 24015G25KT P6SM SCT025
FM172100 25015G25KT P6SM SCT020 BKN090
RMK FCST BASED ON AUTO OBS. NXT FCST WILL BE ISSUED AT 170800Z


Example: see airport list